sensor_id;sensor_type;location;lat;lon;timestamp;pressure;altitude;pressure_sealevel;temperature;humidity
56006;BME280;41888;44.696;10.522;2023-05-23T00:01:39;100276.72;;;16.99;100.00
56006;BME280;41888;44.696;10.522;2023-05-23T00:04:05;100284.91;;;17.09;100.00
56006;BME280;41888;44.696;10.522;2023-05-23T00:06:32;100280.00;;;17.01;100.00
56006;BME280;41888;44.696;10.522;2023-05-23T00:08:59;100279.16;;;17.00;100.00
56006;BME280;41888;44.696;10.522;2023-05-23T00:11:25;100273.09;;;17.10;100.00
56006;BME280;41888;44.696;10.522;2023-05-23T00:13:52;100271.53;;;17.14;100.00
56006;BME280;41888;44.696;10.522;2023-05-23T00:16:19;100273.75;;;16.95;100.00
56006;BME280;41888;44.696;10.522;2023-05-23T00:18:46;100276.25;;;17.02;100.00
56006;BME280;41888;44.696;10.522;2023-05-23T00:21:12;100266.72;;;16.94;100.00
56006;BME280;41888;44.696;10.522;2023-05-23T00:23:39;100267.78;;;16.93;100.00
56006;BME280;41888;44.696;10.522;2023-05-23T00:26:11;100265.78;;;17.05;100.00
56006;BME280;41888;44.696;10.522;2023-05-23T00:28:37;100264.84;;;16.95;100.00
56006;BME280;41888;44.696;10.522;2023-05-23T00:31:04;100264.63;;;16.96;100.00
56006;BME280;41888;44.696;10.522;2023-05-23T00:33:30;100258.44;;;16.96;100.00
56006;BME280;41888;44.696;10.522;2023-05-23T00:35:59;100267.47;;;16.89;100.00
56006;BME280;41888;44.696;10.522;2023-05-23T00:38:25;100267.66;;;16.83;100.00
56006;BME280;41888;44.696;10.522;2023-05-23T00:40:53;100266.31;;;16.80;100.00
56006;BME280;41888;44.696;10.522;2023-05-23T00:43:19;100269.28;;;16.84;100.00
56006;BME280;41888;44.696;10.522;2023-05-23T00:45:48;100264.50;;;16.86;100.00
56006;BME280;41888;44.696;10.522;2023-05-23T00:48:14;100266.66;;;16.89;100.00
56006;BME280;41888;44.696;10.522;2023-05-23T00:50:41;100272.03;;;16.89;100.00
56006;BME280;41888;44.696;10.522;2023-05-23T00:53:08;100266.09;;;16.87;100.00
56006;BME280;41888;44.696;10.522;2023-05-23T00:55:34;100267.91;;;16.81;100.00
56006;BME280;41888;44.696;10.522;2023-05-23T00:58:00;100265.69;;;16.95;100.00
56006;BME280;41888;44.696;10.522;2023-05-23T01:00:28;100271.28;;;16.94;100.00
56006;BME280;41888;44.696;10.522;2023-05-23T01:02:55;100267.31;;;16.96;100.00
56006;BME280;41888;44.696;10.522;2023-05-23T01:05:21;100269.13;;;16.91;100.00
56006;BME280;41888;44.696;10.522;2023-05-23T01:07:49;100276.72;;;16.99;100.00
56006;BME280;41888;44.696;10.522;2023-05-23T01:10:22;100269.41;;;16.94;100.00
56006;BME280;41888;44.696;10.522;2023-05-23T01:15:54;100273.75;;;16.95;100.00
56006;BME280;41888;44.696;10.522;2023-05-23T01:18:42;100275.72;;;16.83;100.00
56006;BME280;41888;44.696;10.522;2023-05-23T01:21:17;100270.09;;;16.84;100.00
56006;BME280;41888;44.696;10.522;2023-05-23T01:29:45;100279.53;;;16.87;100.00
56006;BME280;41888;44.696;10.522;2023-05-23T01:32:13;100269.81;;;16.81;100.00
56006;BME280;41888;44.696;10.522;2023-05-23T01:34:41;100264.84;;;16.73;100.00
56006;BME280;41888;44.696;10.522;2023-05-23T01:37:08;100272.25;;;16.66;100.00
56006;BME280;41888;44.696;10.522;2023-05-23T01:39:43;100275.47;;;16.63;100.00
56006;BME280;41888;44.696;10.522;2023-05-23T01:42:10;100266.72;;;16.56;100.00
56006;BME280;41888;44.696;10.522;2023-05-23T01:44:37;100267.22;;;16.53;100.00
56006;BME280;41888;44.696;10.522;2023-05-23T01:47:06;100273.66;;;16.52;100.00
56006;BME280;41888;44.696;10.522;2023-05-23T01:49:34;100267.22;;;16.53;100.00
56006;BME280;41888;44.696;10.522;2023-05-23T01:52:02;100263.09;;;16.45;100.00
56006;BME280;41888;44.696;10.522;2023-05-23T01:54:30;100265.22;;;16.43;100.00
56006;BME280;41888;44.696;10.522;2023-05-23T01:56:57;100262.84;;;16.46;100.00
56006;BME280;41888;44.696;10.522;2023-05-23T01:59:24;100261.66;;;16.37;100.00
56006;BME280;41888;44.696;10.522;2023-05-23T02:01:50;100261.31;;;16.34;100.00
56006;BME280;41888;44.696;10.522;2023-05-23T02:04:17;100260.03;;;16.36;100.00
56006;BME280;41888;44.696;10.522;2023-05-23T02:06:43;100264.34;;;16.37;100.00
56006;BME280;41888;44.696;10.522;2023-05-23T02:09:09;100263.44;;;16.32;100.00
56006;BME280;41888;44.696;10.522;2023-05-23T02:11:36;100259.88;;;16.26;100.00
56006;BME280;41888;44.696;10.522;2023-05-23T02:14:02;100258.25;;;16.25;100.00
56006;BME280;41888;44.696;10.522;2023-05-23T02:16:28;100262.69;;;16.36;100.00
56006;BME280;41888;44.696;10.522;2023-05-23T02:18:55;100267.75;;;16.50;100.00
56006;BME280;41888;44.696;10.522;2023-05-23T02:21:22;100261.75;;;16.26;100.00
56006;BME280;41888;44.696;10.522;2023-05-23T02:23:48;100261.66;;;16.21;100.00
56006;BME280;41888;44.696;10.522;2023-05-23T02:26:14;100256.69;;;16.13;100.00
56006;BME280;41888;44.696;10.522;2023-05-23T02:28:41;100245.72;;;16.14;100.00
56006;BME280;41888;44.696;10.522;2023-05-23T02:31:07;100256.53;;;16.19;100.00
56006;BME280;41888;44.696;10.522;2023-05-23T02:33:33;100252.94;;;16.14;100.00
56006;BME280;41888;44.696;10.522;2023-05-23T02:35:59;100254.97;;;16.23;100.00
56006;BME280;41888;44.696;10.522;2023-05-23T02:38:27;100257.28;;;16.15;100.00
56006;BME280;41888;44.696;10.522;2023-05-23T02:40:54;100247.34;;;16.15;100.00
56006;BME280;41888;44.696;10.522;2023-05-23T02:43:22;100253.22;;;16.12;100.00
56006;BME280;41888;44.696;10.522;2023-05-23T02:45:49;100254.34;;;16.16;100.00
56006;BME280;41888;44.696;10.522;2023-05-23T02:48:15;100250.94;;;16.21;100.00
56006;BME280;41888;44.696;10.522;2023-05-23T02:50:42;100251.59;;;16.11;100.00
56006;BME280;41888;44.696;10.522;2023-05-23T02:53:08;100248.31;;;16.09;100.00
56006;BME280;41888;44.696;10.522;2023-05-23T02:55:34;100253.44;;;16.27;100.00
56006;BME280;41888;44.696;10.522;2023-05-23T02:58:01;100246.53;;;16.15;100.00
56006;BME280;41888;44.696;10.522;2023-05-23T03:00:30;100250.94;;;16.21;100.00
56006;BME280;41888;44.696;10.522;2023-05-23T03:02:57;100243.47;;;16.06;100.00
56006;BME280;41888;44.696;10.522;2023-05-23T03:05:23;100238.66;;;16.08;100.00
56006;BME280;41888;44.696;10.522;2023-05-23T03:07:50;100239.88;;;16.17;100.00
56006;BME280;41888;44.696;10.522;2023-05-23T03:10:17;100237.34;;;16.11;100.00
56006;BME280;41888;44.696;10.522;2023-05-23T03:12:44;100240.78;;;16.23;100.00
56006;BME280;41888;44.696;10.522;2023-05-23T03:15:10;100236.38;;;16.17;100.00
56006;BME280;41888;44.696;10.522;2023-05-23T03:17:36;100240.44;;;16.19;100.00
56006;BME280;41888;44.696;10.522;2023-05-23T03:20:03;100239.94;;;16.22;100.00
56006;BME280;41888;44.696;10.522;2023-05-23T03:22:29;100236.03;;;16.13;100.00
56006;BME280;41888;44.696;10.522;2023-05-23T03:24:56;100245.97;;;16.13;100.00
56006;BME280;41888;44.696;10.522;2023-05-23T03:27:22;100239.72;;;16.07;100.00
56006;BME280;41888;44.696;10.522;2023-05-23T03:29:48;100240.19;;;16.04;100.00
56006;BME280;41888;44.696;10.522;2023-05-23T03:32:14;100238.16;;;16.11;100.00
56006;BME280;41888;44.696;10.522;2023-05-23T03:34:40;100240.59;;;16.13;100.00
56006;BME280;41888;44.696;10.522;2023-05-23T03:37:07;100243.19;;;16.24;100.00
56006;BME280;41888;44.696;10.522;2023-05-23T03:39:33;100241.47;;;16.18;100.00
56006;BME280;41888;44.696;10.522;2023-05-23T03:41:59;100243.75;;;16.26;100.00
56006;BME280;41888;44.696;10.522;2023-05-23T03:44:25;100245.97;;;16.13;100.00
56006;BME280;41888;44.696;10.522;2023-05-23T03:46:52;100245.16;;;16.12;100.00
56006;BME280;41888;44.696;10.522;2023-05-23T03:49:18;100245.41;;;16.11;100.00
56006;BME280;41888;44.696;10.522;2023-05-23T03:51:44;100241.09;;;16.10;100.00
56006;BME280;41888;44.696;10.522;2023-05-23T03:54:10;100243.53;;;16.11;100.00
56006;BME280;41888;44.696;10.522;2023-05-23T03:56:36;100240.59;;;16.13;100.00
56006;BME280;41888;44.696;10.522;2023-05-23T03:59:02;100246.06;;;16.01;100.00
56006;BME280;41888;44.696;10.522;2023-05-23T04:01:29;100241.25;;;16.03;100.00
56006;BME280;41888;44.696;10.522;2023-05-23T04:03:55;100248.97;;;16.16;100.00
56006;BME280;41888;44.696;10.522;2023-05-23T04:06:21;100247.59;;;16.14;100.00
56006;BME280;41888;44.696;10.522;2023-05-23T04:08:48;100248.31;;;16.09;100.00
56006;BME280;41888;44.696;10.522;2023-05-23T04:11:14;100252.72;;;16.15;100.00
56006;BME280;41888;44.696;10.522;2023-05-23T04:13:40;100250.69;;;16.22;100.00
56006;BME280;41888;44.696;10.522;2023-05-23T04:16:07;100248.69;;;16.34;100.00
56006;BME280;41888;44.696;10.522;2023-05-23T04:18:33;100253.09;;;16.40;100.00
56006;BME280;41888;44.696;10.522;2023-05-23T04:21:00;100251.97;;;16.36;100.00
56006;BME280;41888;44.696;10.522;2023-05-23T04:23:27;100256.72;;;16.51;100.00
56006;BME280;41888;44.696;10.522;2023-05-23T04:25:53;100254.78;;;16.63;100.00
56006;BME280;41888;44.696;10.522;2023-05-23T04:28:19;100255.66;;;16.69;100.00
56006;BME280;41888;44.696;10.522;2023-05-23T04:30:45;100259.06;;;16.81;100.00
56006;BME280;41888;44.696;10.522;2023-05-23T04:33:14;100259.28;;;16.79;100.00
56006;BME280;41888;44.696;10.522;2023-05-23T04:35:40;100257.25;;;16.86;100.00
56006;BME280;41888;44.696;10.522;2023-05-23T04:38:06;100259.13;;;16.86;100.00
56006;BME280;41888;44.696;10.522;2023-05-23T04:40:33;100256.56;;;16.96;100.00
56006;BME280;41888;44.696;10.522;2023-05-23T04:42:59;100263.16;;;17.10;100.00
56006;BME280;41888;44.696;10.522;2023-05-23T04:45:25;100260.53;;;17.15;100.00
56006;BME280;41888;44.696;10.522;2023-05-23T04:47:52;100259.63;;;17.31;100.00
56006;BME280;41888;44.696;10.522;2023-05-23T04:50:21;100255.19;;;17.42;100.00
56006;BME280;41888;44.696;10.522;2023-05-23T04:52:48;100254.03;;;17.60;100.00
56006;BME280;41888;44.696;10.522;2023-05-23T04:55:14;100250.63;;;17.69;100.00
56006;BME280;41888;44.696;10.522;2023-05-23T04:57:40;100247.22;;;17.79;100.00
56006;BME280;41888;44.696;10.522;2023-05-23T05:00:07;100253.00;;;17.98;100.00
56006;BME280;41888;44.696;10.522;2023-05-23T05:02:36;100264.16;;;18.11;100.00
56006;BME280;41888;44.696;10.522;2023-05-23T05:05:03;100267.84;;;18.37;100.00
56006;BME280;41888;44.696;10.522;2023-05-23T05:07:29;100259.94;;;18.63;100.00
56006;BME280;41888;44.696;10.522;2023-05-23T05:09:56;100269.81;;;18.99;100.00
56006;BME280;41888;44.696;10.522;2023-05-23T05:12:22;100269.34;;;19.17;100.00
56006;BME280;41888;44.696;10.522;2023-05-23T05:14:48;100269.22;;;19.64;100.00
56006;BME280;41888;44.696;10.522;2023-05-23T05:17:14;100270.03;;;20.41;100.00
56006;BME280;41888;44.696;10.522;2023-05-23T05:19:41;100279.53;;;21.18;100.00
56006;BME280;41888;44.696;10.522;2023-05-23T05:22:07;100282.75;;;21.69;100.00
56006;BME280;41888;44.696;10.522;2023-05-23T05:24:34;100276.19;;;22.43;100.00
56006;BME280;41888;44.696;10.522;2023-05-23T05:27:00;100283.63;;;22.85;100.00
56006;BME280;41888;44.696;10.522;2023-05-23T05:29:26;100279.06;;;23.23;100.00
56006;BME280;41888;44.696;10.522;2023-05-23T05:31:53;100285.59;;;23.22;100.00
56006;BME280;41888;44.696;10.522;2023-05-23T05:34:19;100283.03;;;24.05;97.07
56006;BME280;41888;44.696;10.522;2023-05-23T05:36:46;100293.00;;;24.88;91.01
56006;BME280;41888;44.696;10.522;2023-05-23T05:39:13;100289.53;;;25.23;88.37
56006;BME280;41888;44.696;10.522;2023-05-23T05:41:40;100287.66;;;25.46;85.78
56006;BME280;41888;44.696;10.522;2023-05-23T05:44:07;100289.28;;;25.47;85.73
56006;BME280;41888;44.696;10.522;2023-05-23T05:46:33;100290.66;;;25.94;81.25
56006;BME280;41888;44.696;10.522;2023-05-23T05:48:59;100294.41;;;26.29;79.84
56006;BME280;41888;44.696;10.522;2023-05-23T05:51:25;100292.19;;;26.09;80.21
56006;BME280;41888;44.696;10.522;2023-05-23T05:53:51;100293.06;;;26.80;75.56
56006;BME280;41888;44.696;10.522;2023-05-23T05:56:18;100286.59;;;26.14;77.56
56006;BME280;41888;44.696;10.522;2023-05-23T05:58:45;100292.56;;;25.22;84.71
56006;BME280;41888;44.696;10.522;2023-05-23T06:01:11;100282.56;;;25.17;87.01
56006;BME280;41888;44.696;10.522;2023-05-23T06:03:37;100292.75;;;24.85;89.23
56006;BME280;41888;44.696;10.522;2023-05-23T06:06:03;100291.63;;;24.72;91.83
56006;BME280;41888;44.696;10.522;2023-05-23T06:08:30;100294.91;;;24.88;94.17
56006;BME280;41888;44.696;10.522;2023-05-23T06:10:56;100284.88;;;24.69;93.21
56006;BME280;41888;44.696;10.522;2023-05-23T06:13:22;100284.09;;;24.69;92.00
56006;BME280;41888;44.696;10.522;2023-05-23T06:15:48;100291.13;;;24.70;93.23
56006;BME280;41888;44.696;10.522;2023-05-23T06:18:14;100284.78;;;24.47;94.48
56006;BME280;41888;44.696;10.522;2023-05-23T06:20:41;100280.81;;;24.39;93.70
56006;BME280;41888;44.696;10.522;2023-05-23T06:23:07;100280.91;;;24.21;95.17
56006;BME280;41888;44.696;10.522;2023-05-23T06:25:33;100288.06;;;24.44;93.62
56006;BME280;41888;44.696;10.522;2023-05-23T06:28:00;100287.25;;;24.44;93.79
56006;BME280;41888;44.696;10.522;2023-05-23T06:30:26;100289.69;;;24.45;94.74
56006;BME280;41888;44.696;10.522;2023-05-23T06:32:54;100289.88;;;24.95;93.23
56006;BME280;41888;44.696;10.522;2023-05-23T06:35:20;100286.59;;;25.20;91.87
56006;BME280;41888;44.696;10.522;2023-05-23T06:37:46;100295.69;;;25.15;87.65
56006;BME280;41888;44.696;10.522;2023-05-23T06:40:13;100291.44;;;25.23;88.04
56006;BME280;41888;44.696;10.522;2023-05-23T06:42:40;100292.06;;;25.20;87.73
56006;BME280;41888;44.696;10.522;2023-05-23T06:45:07;100289.03;;;25.08;86.73
56006;BME280;41888;44.696;10.522;2023-05-23T06:47:33;100289.88;;;24.95;87.80
56006;BME280;41888;44.696;10.522;2023-05-23T06:49:59;100292.16;;;25.01;87.94
56006;BME280;41888;44.696;10.522;2023-05-23T06:52:25;100295.28;;;25.08;86.26
56006;BME280;41888;44.696;10.522;2023-05-23T06:54:51;100291.34;;;25.14;86.63
56006;BME280;41888;44.696;10.522;2023-05-23T06:57:18;100296.88;;;25.23;85.03
56006;BME280;41888;44.696;10.522;2023-05-23T06:59:44;100297.09;;;25.27;82.53
56006;BME280;41888;44.696;10.522;2023-05-23T07:02:10;100300.31;;;25.01;81.75
56006;BME280;41888;44.696;10.522;2023-05-23T07:04:36;100298.00;;;25.22;82.46
56006;BME280;41888;44.696;10.522;2023-05-23T07:07:02;100300.91;;;25.12;80.60
56006;BME280;41888;44.696;10.522;2023-05-23T07:09:29;100297.69;;;25.23;80.05
56006;BME280;41888;44.696;10.522;2023-05-23T07:11:55;100300.00;;;25.30;82.67
56006;BME280;41888;44.696;10.522;2023-05-23T07:14:21;100300.13;;;24.98;83.82
56006;BME280;41888;44.696;10.522;2023-05-23T07:16:47;100302.09;;;25.33;84.67
56006;BME280;41888;44.696;10.522;2023-05-23T07:19:14;100306.38;;;25.26;80.63
56006;BME280;41888;44.696;10.522;2023-05-23T07:21:40;100304.88;;;25.06;81.48
56006;BME280;41888;44.696;10.522;2023-05-23T07:24:06;100306.06;;;25.27;83.18
56006;BME280;41888;44.696;10.522;2023-05-23T07:26:32;100305.69;;;24.93;84.38
56006;BME280;41888;44.696;10.522;2023-05-23T07:28:58;100306.25;;;25.31;85.80
56006;BME280;41888;44.696;10.522;2023-05-23T07:31:25;100306.53;;;25.43;83.73
56006;BME280;41888;44.696;10.522;2023-05-23T07:33:51;100309.44;;;25.60;88.91
56006;BME280;41888;44.696;10.522;2023-05-23T07:36:17;100306.41;;;25.61;87.04
56006;BME280;41888;44.696;10.522;2023-05-23T07:38:43;100313.69;;;25.39;84.90
56006;BME280;41888;44.696;10.522;2023-05-23T07:41:09;100306.31;;;25.53;84.82
56006;BME280;41888;44.696;10.522;2023-05-23T07:43:36;100310.56;;;25.45;84.61
56006;BME280;41888;44.696;10.522;2023-05-23T07:46:02;100313.97;;;25.51;83.56
56006;BME280;41888;44.696;10.522;2023-05-23T07:48:28;100309.03;;;25.53;84.95
56006;BME280;41888;44.696;10.522;2023-05-23T07:50:54;100307.53;;;25.60;86.11
56006;BME280;41888;44.696;10.522;2023-05-23T07:53:21;100310.13;;;25.65;85.76
56006;BME280;41888;44.696;10.522;2023-05-23T07:55:47;100299.84;;;25.62;86.43
56006;BME280;41888;44.696;10.522;2023-05-23T07:58:13;100300.00;;;25.80;83.16
56006;BME280;41888;44.696;10.522;2023-05-23T08:00:40;100308.63;;;25.59;83.08
56006;BME280;41888;44.696;10.522;2023-05-23T08:03:06;100303.41;;;25.63;83.57
56006;BME280;41888;44.696;10.522;2023-05-23T08:05:33;100302.28;;;25.50;83.72
56006;BME280;41888;44.696;10.522;2023-05-23T08:07:59;100296.91;;;25.73;83.57
56006;BME280;41888;44.696;10.522;2023-05-23T08:10:25;100292.69;;;25.89;83.61
56006;BME280;41888;44.696;10.522;2023-05-23T08:12:54;100294.31;;;25.90;83.02
56006;BME280;41888;44.696;10.522;2023-05-23T08:15:21;100287.75;;;25.91;81.72
56006;BME280;41888;44.696;10.522;2023-05-23T08:17:49;100279.47;;;25.60;80.72
56006;BME280;41888;44.696;10.522;2023-05-23T08:20:15;100291.16;;;25.74;82.72
56006;BME280;41888;44.696;10.522;2023-05-23T08:22:41;100292.66;;;25.67;79.92
56006;BME280;41888;44.696;10.522;2023-05-23T08:25:08;100290.63;;;25.72;78.36
56006;BME280;41888;44.696;10.522;2023-05-23T08:27:34;100282.16;;;25.38;79.84
56006;BME280;41888;44.696;10.522;2023-05-23T08:30:01;100285.13;;;25.63;81.82
56006;BME280;41888;44.696;10.522;2023-05-23T08:32:28;100290.34;;;25.74;82.24
56006;BME280;41888;44.696;10.522;2023-05-23T08:34:54;100285.47;;;25.71;82.53
56006;BME280;41888;44.696;10.522;2023-05-23T08:37:21;100287.28;;;25.75;81.05
56006;BME280;41888;44.696;10.522;2023-05-23T08:39:47;100287.50;;;25.79;79.58
56006;BME280;41888;44.696;10.522;2023-05-23T08:42:13;100293.13;;;25.82;81.49
56006;BME280;41888;44.696;10.522;2023-05-23T08:44:39;100285.69;;;25.96;80.92
56006;BME280;41888;44.696;10.522;2023-05-23T08:47:08;100293.44;;;26.03;81.59
56006;BME280;41888;44.696;10.522;2023-05-23T08:49:34;100295.28;;;26.16;80.32
56006;BME280;41888;44.696;10.522;2023-05-23T08:52:02;100294.28;;;26.12;76.87
56006;BME280;41888;44.696;10.522;2023-05-23T08:54:29;100293.16;;;26.13;77.56
56006;BME280;41888;44.696;10.522;2023-05-23T08:56:57;100293.81;;;26.10;78.70
56006;BME280;41888;44.696;10.522;2023-05-23T08:59:25;100291.81;;;26.02;77.92
56006;BME280;41888;44.696;10.522;2023-05-23T09:01:55;100291.50;;;26.03;79.47
56006;BME280;41888;44.696;10.522;2023-05-23T09:04:22;100300.66;;;26.07;77.89
56006;BME280;41888;44.696;10.522;2023-05-23T09:06:48;100301.31;;;26.04;76.08
56006;BME280;41888;44.696;10.522;2023-05-23T09:09:15;100300.53;;;26.13;75.40
56006;BME280;41888;44.696;10.522;2023-05-23T09:11:42;100292.00;;;25.83;72.70
56006;BME280;41888;44.696;10.522;2023-05-23T09:14:11;100286.59;;;26.14;72.93
56006;BME280;41888;44.696;10.522;2023-05-23T09:16:39;100294.31;;;25.90;73.82
56006;BME280;41888;44.696;10.522;2023-05-23T09:19:12;100294.22;;;25.81;75.78
56006;BME280;41888;44.696;10.522;2023-05-23T09:21:43;100286.69;;;26.00;75.82
56006;BME280;41888;44.696;10.522;2023-05-23T09:24:10;100291.72;;;25.85;74.70
56006;BME280;41888;44.696;10.522;2023-05-23T09:26:37;100291.06;;;25.88;75.91
56006;BME280;41888;44.696;10.522;2023-05-23T09:29:06;100283.66;;;26.24;76.02
56006;BME280;41888;44.696;10.522;2023-05-23T09:31:33;100282.41;;;26.30;71.84
56006;BME280;41888;44.696;10.522;2023-05-23T09:33:59;100279.28;;;26.45;71.21
56006;BME280;41888;44.696;10.522;2023-05-23T09:36:27;100276.47;;;26.59;74.05
56006;BME280;41888;44.696;10.522;2023-05-23T09:38:55;100276.31;;;26.64;74.23
56006;BME280;41888;44.696;10.522;2023-05-23T09:41:21;100277.44;;;26.72;74.24
56006;BME280;41888;44.696;10.522;2023-05-23T09:43:51;100275.03;;;26.70;75.21
56006;BME280;41888;44.696;10.522;2023-05-23T09:46:20;100274.00;;;26.88;73.35
56006;BME280;41888;44.696;10.522;2023-05-23T09:48:52;100276.00;;;27.05;69.65
56006;BME280;41888;44.696;10.522;2023-05-23T09:51:21;100273.22;;;26.88;67.92
56006;BME280;41888;44.696;10.522;2023-05-23T09:53:49;100274.03;;;26.97;70.69
56006;BME280;41888;44.696;10.522;2023-05-23T09:56:16;100280.66;;;27.05;69.17
56006;BME280;41888;44.696;10.522;2023-05-23T09:58:48;100269.47;;;26.84;68.75
56006;BME280;41888;44.696;10.522;2023-05-23T10:01:15;100271.19;;;26.71;68.71
56006;BME280;41888;44.696;10.522;2023-05-23T10:03:49;100270.38;;;26.71;71.62
56006;BME280;41888;44.696;10.522;2023-05-23T10:06:43;100267.94;;;27.00;68.50
56006;BME280;41888;44.696;10.522;2023-05-23T10:09:17;100271.63;;;26.96;66.53
56006;BME280;41888;44.696;10.522;2023-05-23T10:12:20;100266.59;;;26.80;66.58
56006;BME280;41888;44.696;10.522;2023-05-23T10:15:03;100266.75;;;26.84;66.52
56006;BME280;41888;44.696;10.522;2023-05-23T10:20:15;100263.00;;;27.11;68.28
56006;BME280;41888;44.696;10.522;2023-05-23T10:22:43;100271.84;;;27.16;65.80
56006;BME280;41888;44.696;10.522;2023-05-23T10:25:09;100262.22;;;27.27;68.04
56006;BME280;41888;44.696;10.522;2023-05-23T10:27:39;100274.56;;;27.16;66.54
56006;BME280;41888;44.696;10.522;2023-05-23T10:30:07;100265.28;;;27.43;65.74
56006;BME280;41888;44.696;10.522;2023-05-23T10:32:34;100259.97;;;27.47;66.13
56006;BME280;41888;44.696;10.522;2023-05-23T10:37:41;100257.56;;;27.28;64.61
56006;BME280;41888;44.696;10.522;2023-05-23T10:43:17;100264.28;;;27.39;65.71
56006;BME280;41888;44.696;10.522;2023-05-23T10:45:42;100244.84;;;27.41;60.67
56006;BME280;41888;44.696;10.522;2023-05-23T10:51:07;100250.50;;;27.79;66.74
56006;BME280;41888;44.696;10.522;2023-05-23T10:53:39;100247.47;;;27.80;65.09
56006;BME280;41888;44.696;10.522;2023-05-23T10:56:10;100245.69;;;27.58;64.70
56006;BME280;41888;44.696;10.522;2023-05-23T10:58:38;100243.56;;;27.47;68.10
56006;BME280;41888;44.696;10.522;2023-05-23T11:01:07;100236.66;;;27.84;65.39
56006;BME280;41888;44.696;10.522;2023-05-23T11:09:11;100242.75;;;28.15;60.63
56006;BME280;41888;44.696;10.522;2023-05-23T11:14:30;100234.38;;;28.03;58.66
56006;BME280;41888;44.696;10.522;2023-05-23T11:16:58;100227.94;;;28.07;58.24
56006;BME280;41888;44.696;10.522;2023-05-23T11:19:26;100231.88;;;28.36;58.49
56006;BME280;41888;44.696;10.522;2023-05-23T11:22:03;100228.72;;;28.25;56.00
56006;BME280;41888;44.696;10.522;2023-05-23T11:24:54;100219.59;;;27.87;55.20
56006;BME280;41888;44.696;10.522;2023-05-23T11:27:40;100217.84;;;27.82;52.15
56006;BME280;41888;44.696;10.522;2023-05-23T11:32:35;100217.31;;;28.06;49.33
56006;BME280;41888;44.696;10.522;2023-05-23T11:35:09;100216.91;;;27.78;51.40
56006;BME280;41888;44.696;10.522;2023-05-23T11:37:38;100211.03;;;28.23;52.72
56006;BME280;41888;44.696;10.522;2023-05-23T11:40:33;100208.44;;;28.55;50.71
56006;BME280;41888;44.696;10.522;2023-05-23T11:43:12;100223.41;;;28.29;47.87
56006;BME280;41888;44.696;10.522;2023-05-23T11:45:39;100213.63;;;28.02;48.66
56006;BME280;41888;44.696;10.522;2023-05-23T11:48:14;100212.00;;;28.09;48.26
56006;BME280;41888;44.696;10.522;2023-05-23T11:50:49;100207.00;;;28.29;50.74
56006;BME280;41888;44.696;10.522;2023-05-23T11:53:18;100195.63;;;28.47;51.29
56006;BME280;41888;44.696;10.522;2023-05-23T11:56:04;100196.44;;;28.48;51.34
56006;BME280;41888;44.696;10.522;2023-05-23T11:58:36;100192.88;;;28.47;51.15
56006;BME280;41888;44.696;10.522;2023-05-23T12:01:04;100191.00;;;28.69;47.69
56006;BME280;41888;44.696;10.522;2023-05-23T12:03:43;100191.44;;;28.79;48.27
56006;BME280;41888;44.696;10.522;2023-05-23T12:06:20;100191.66;;;29.16;47.35
56006;BME280;41888;44.696;10.522;2023-05-23T12:08:47;100182.16;;;28.92;45.93
56006;BME280;41888;44.696;10.522;2023-05-23T12:11:13;100185.88;;;28.96;46.42
56006;BME280;41888;44.696;10.522;2023-05-23T12:13:41;100171.81;;;28.77;44.35
56006;BME280;41888;44.696;10.522;2023-05-23T12:16:07;100175.59;;;28.55;44.33
56006;BME280;41888;44.696;10.522;2023-05-23T12:18:33;100172.97;;;28.76;44.52
56006;BME280;41888;44.696;10.522;2023-05-23T12:21:04;100175.44;;;28.90;44.22
56006;BME280;41888;44.696;10.522;2023-05-23T12:23:34;100162.22;;;29.13;43.45
56006;BME280;41888;44.696;10.522;2023-05-23T12:26:04;100171.06;;;29.30;43.80
56006;BME280;41888;44.696;10.522;2023-05-23T12:28:39;100157.84;;;29.53;43.93
56006;BME280;41888;44.696;10.522;2023-05-23T12:33:43;100158.19;;;28.31;43.33
56006;BME280;41888;44.696;10.522;2023-05-23T12:36:10;100160.16;;;28.51;42.90
56006;BME280;41888;44.696;10.522;2023-05-23T12:38:37;100155.00;;;27.73;45.66
56006;BME280;41888;44.696;10.522;2023-05-23T12:41:15;100149.03;;;28.27;44.61
56006;BME280;41888;44.696;10.522;2023-05-23T12:43:50;100146.31;;;28.27;42.55
56006;BME280;41888;44.696;10.522;2023-05-23T12:46:20;100148.19;;;28.64;43.92
56006;BME280;41888;44.696;10.522;2023-05-23T12:48:47;100153.91;;;28.50;43.62
56006;BME280;41888;44.696;10.522;2023-05-23T12:51:14;100144.56;;;28.22;43.27
56006;BME280;41888;44.696;10.522;2023-05-23T12:53:41;100139.34;;;28.29;43.05
56006;BME280;41888;44.696;10.522;2023-05-23T12:56:07;100138.03;;;28.35;45.22
56006;BME280;41888;44.696;10.522;2023-05-23T12:58:34;100132.50;;;28.14;44.21
56006;BME280;41888;44.696;10.522;2023-05-23T13:01:01;100126.03;;;27.72;47.19
56006;BME280;41888;44.696;10.522;2023-05-23T13:03:28;100121.44;;;28.02;47.57
56006;BME280;41888;44.696;10.522;2023-05-23T13:05:58;100124.59;;;28.51;47.61
56006;BME280;41888;44.696;10.522;2023-05-23T13:08:25;100118.72;;;28.61;45.55
56006;BME280;41888;44.696;10.522;2023-05-23T13:10:55;100124.41;;;28.85;45.78
56006;BME280;41888;44.696;10.522;2023-05-23T13:13:22;100117.91;;;29.11;47.76